Altdorf, Switzerland
Current Conditions -  °F | °C
As of 2:20 AM on Wednesday 22 Oct 2014 (Local Time) from LSZC Reporting Station
Rain Showers Rain Showers  
Wind Chill: 41°   Ceiling: 4700
Heat Index: 46°   Visibility: 6mi
Dew Point: 37°   Wind: 12mph
Humidity: 71%   Direction: 210°SSW
Pressure: 30.09"   Gusts: NA
Location:  46.89°N, 8.64°E
Report Text: LSZC 220020Z AUTO 21010KT 180V250 9999 -SHRA BKN047 BKN060 08/03 Q1019
Loading
Personal Weather Stations






























Interactive Weather Map
Tropical Storm Tracking
New forecast layout! Learn more

10-Day Weather Forecast

Advertisements
Track Severe Weather on mobile